sensor_id;sensor_type;location;lat;lon;timestamp;P1;durP1;ratioP1;P2;durP2;ratioP2
24373;SDS011;12498;50.880;12.096;2023-06-26T00:02:15;9.55;;;6.07;;
24373;SDS011;12498;50.880;12.096;2023-06-26T00:04:42;10.43;;;6.38;;
24373;SDS011;12498;50.880;12.096;2023-06-26T00:07:08;8.18;;;6.15;;
24373;SDS011;12498;50.880;12.096;2023-06-26T00:09:34;8.30;;;6.30;;
24373;SDS011;12498;50.880;12.096;2023-06-26T00:12:00;8.88;;;6.22;;
24373;SDS011;12498;50.880;12.096;2023-06-26T00:14:26;11.98;;;6.43;;
24373;SDS011;12498;50.880;12.096;2023-06-26T00:16:52;8.85;;;6.80;;
24373;SDS011;12498;50.880;12.096;2023-06-26T00:19:18;12.15;;;7.20;;
24373;SDS011;12498;50.880;12.096;2023-06-26T00:21:44;8.13;;;6.50;;
24373;SDS011;12498;50.880;12.096;2023-06-26T00:24:13;11.18;;;6.78;;
24373;SDS011;12498;50.880;12.096;2023-06-26T00:26:39;8.13;;;6.45;;
24373;SDS011;12498;50.880;12.096;2023-06-26T00:29:05;10.05;;;6.13;;
24373;SDS011;12498;50.880;12.096;2023-06-26T00:31:31;6.82;;;5.82;;
24373;SDS011;12498;50.880;12.096;2023-06-26T00:33:57;8.18;;;6.25;;
24373;SDS011;12498;50.880;12.096;2023-06-26T00:36:23;11.07;;;6.25;;
24373;SDS011;12498;50.880;12.096;2023-06-26T00:38:51;8.43;;;5.97;;
24373;SDS011;12498;50.880;12.096;2023-06-26T00:41:17;7.80;;;6.22;;
24373;SDS011;12498;50.880;12.096;2023-06-26T00:43:43;7.00;;;5.70;;
24373;SDS011;12498;50.880;12.096;2023-06-26T00:46:09;8.38;;;6.30;;
24373;SDS011;12498;50.880;12.096;2023-06-26T00:48:36;9.38;;;6.45;;
24373;SDS011;12498;50.880;12.096;2023-06-26T00:51:02;10.82;;;6.60;;
24373;SDS011;12498;50.880;12.096;2023-06-26T00:53:28;8.73;;;6.80;;
24373;SDS011;12498;50.880;12.096;2023-06-26T00:55:54;7.13;;;5.78;;
24373;SDS011;12498;50.880;12.096;2023-06-26T00:58:21;13.20;;;6.50;;
24373;SDS011;12498;50.880;12.096;2023-06-26T01:00:49;10.77;;;6.40;;
24373;SDS011;12498;50.880;12.096;2023-06-26T01:03:16;11.02;;;6.30;;
24373;SDS011;12498;50.880;12.096;2023-06-26T01:05:42;9.65;;;7.10;;
24373;SDS011;12498;50.880;12.096;2023-06-26T01:08:11;12.45;;;6.97;;
24373;SDS011;12498;50.880;12.096;2023-06-26T01:10:37;8.35;;;6.40;;
24373;SDS011;12498;50.880;12.096;2023-06-26T01:13:03;9.93;;;6.93;;
24373;SDS011;12498;50.880;12.096;2023-06-26T01:15:29;11.48;;;7.30;;
24373;SDS011;12498;50.880;12.096;2023-06-26T01:17:55;10.88;;;7.10;;
24373;SDS011;12498;50.880;12.096;2023-06-26T01:20:24;11.55;;;7.13;;
24373;SDS011;12498;50.880;12.096;2023-06-26T01:23:02;8.40;;;6.72;;
24373;SDS011;12498;50.880;12.096;2023-06-26T01:25:32;8.73;;;7.10;;
24373;SDS011;12498;50.880;12.096;2023-06-26T01:28:03;10.40;;;6.88;;
24373;SDS011;12498;50.880;12.096;2023-06-26T01:30:30;9.98;;;7.50;;
24373;SDS011;12498;50.880;12.096;2023-06-26T01:32:57;10.85;;;7.25;;
24373;SDS011;12498;50.880;12.096;2023-06-26T01:35:24;12.23;;;7.22;;
24373;SDS011;12498;50.880;12.096;2023-06-26T01:37:50;9.27;;;6.90;;
24373;SDS011;12498;50.880;12.096;2023-06-26T01:40:16;8.45;;;7.40;;
24373;SDS011;12498;50.880;12.096;2023-06-26T01:42:42;11.88;;;7.38;;
24373;SDS011;12498;50.880;12.096;2023-06-26T01:45:15;10.18;;;7.13;;
24373;SDS011;12498;50.880;12.096;2023-06-26T01:47:44;9.73;;;7.10;;
24373;SDS011;12498;50.880;12.096;2023-06-26T01:50:14;11.05;;;7.82;;
24373;SDS011;12498;50.880;12.096;2023-06-26T01:52:46;10.07;;;8.27;;
24373;SDS011;12498;50.880;12.096;2023-06-26T01:58:01;10.25;;;7.30;;
24373;SDS011;12498;50.880;12.096;2023-06-26T02:00:27;9.52;;;7.35;;
24373;SDS011;12498;50.880;12.096;2023-06-26T02:02:53;12.02;;;7.72;;
24373;SDS011;12498;50.880;12.096;2023-06-26T02:05:19;13.20;;;7.80;;
24373;SDS011;12498;50.880;12.096;2023-06-26T02:07:45;12.25;;;7.95;;
24373;SDS011;12498;50.880;12.096;2023-06-26T02:10:12;10.30;;;7.38;;
24373;SDS011;12498;50.880;12.096;2023-06-26T02:12:38;10.25;;;7.50;;
24373;SDS011;12498;50.880;12.096;2023-06-26T02:15:04;11.75;;;7.30;;
24373;SDS011;12498;50.880;12.096;2023-06-26T02:17:30;15.20;;;7.43;;
24373;SDS011;12498;50.880;12.096;2023-06-26T02:19:56;9.43;;;7.50;;
24373;SDS011;12498;50.880;12.096;2023-06-26T02:22:22;11.70;;;7.90;;
24373;SDS011;12498;50.880;12.096;2023-06-26T02:24:48;11.52;;;8.40;;
24373;SDS011;12498;50.880;12.096;2023-06-26T02:27:14;10.93;;;8.30;;
24373;SDS011;12498;50.880;12.096;2023-06-26T02:29:40;11.90;;;8.45;;
24373;SDS011;12498;50.880;12.096;2023-06-26T02:32:07;13.25;;;9.45;;
24373;SDS011;12498;50.880;12.096;2023-06-26T02:34:33;10.00;;;7.93;;
24373;SDS011;12498;50.880;12.096;2023-06-26T02:36:59;9.85;;;7.60;;
24373;SDS011;12498;50.880;12.096;2023-06-26T02:39:26;10.52;;;7.45;;
24373;SDS011;12498;50.880;12.096;2023-06-26T02:41:52;10.55;;;7.72;;
24373;SDS011;12498;50.880;12.096;2023-06-26T02:44:18;12.35;;;7.65;;
24373;SDS011;12498;50.880;12.096;2023-06-26T02:46:44;12.50;;;8.55;;
24373;SDS011;12498;50.880;12.096;2023-06-26T02:49:10;14.52;;;9.55;;
24373;SDS011;12498;50.880;12.096;2023-06-26T02:51:36;18.02;;;10.85;;
24373;SDS011;12498;50.880;12.096;2023-06-26T02:54:02;19.52;;;11.60;;
24373;SDS011;12498;50.880;12.096;2023-06-26T02:56:28;15.63;;;10.45;;
24373;SDS011;12498;50.880;12.096;2023-06-26T02:58:54;16.27;;;9.40;;
24373;SDS011;12498;50.880;12.096;2023-06-26T03:01:20;11.50;;;8.68;;
24373;SDS011;12498;50.880;12.096;2023-06-26T03:03:46;14.43;;;8.90;;
24373;SDS011;12498;50.880;12.096;2023-06-26T03:06:13;16.13;;;9.65;;
24373;SDS011;12498;50.880;12.096;2023-06-26T03:08:39;9.77;;;8.38;;
24373;SDS011;12498;50.880;12.096;2023-06-26T03:11:05;11.63;;;8.70;;
24373;SDS011;12498;50.880;12.096;2023-06-26T03:13:32;15.68;;;9.40;;
24373;SDS011;12498;50.880;12.096;2023-06-26T03:15:58;15.77;;;8.88;;
24373;SDS011;12498;50.880;12.096;2023-06-26T03:18:24;12.15;;;8.82;;
24373;SDS011;12498;50.880;12.096;2023-06-26T03:20:50;11.88;;;8.98;;
24373;SDS011;12498;50.880;12.096;2023-06-26T03:23:16;12.13;;;9.13;;
24373;SDS011;12498;50.880;12.096;2023-06-26T03:25:42;11.75;;;8.57;;
24373;SDS011;12498;50.880;12.096;2023-06-26T03:28:08;12.40;;;8.75;;
24373;SDS011;12498;50.880;12.096;2023-06-26T03:30:34;11.27;;;8.43;;
24373;SDS011;12498;50.880;12.096;2023-06-26T03:33:00;14.80;;;8.43;;
24373;SDS011;12498;50.880;12.096;2023-06-26T03:35:26;13.23;;;8.32;;
24373;SDS011;12498;50.880;12.096;2023-06-26T03:37:52;11.55;;;8.13;;
24373;SDS011;12498;50.880;12.096;2023-06-26T03:40:18;10.35;;;8.00;;
24373;SDS011;12498;50.880;12.096;2023-06-26T03:42:44;14.77;;;8.60;;
24373;SDS011;12498;50.880;12.096;2023-06-26T03:45:10;15.50;;;9.52;;
24373;SDS011;12498;50.880;12.096;2023-06-26T03:47:36;12.55;;;9.35;;
24373;SDS011;12498;50.880;12.096;2023-06-26T03:50:02;12.63;;;9.48;;
24373;SDS011;12498;50.880;12.096;2023-06-26T03:52:29;14.25;;;10.05;;
24373;SDS011;12498;50.880;12.096;2023-06-26T03:54:56;13.18;;;9.70;;
24373;SDS011;12498;50.880;12.096;2023-06-26T03:57:22;15.68;;;9.57;;
24373;SDS011;12498;50.880;12.096;2023-06-26T03:59:48;12.98;;;8.95;;
24373;SDS011;12498;50.880;12.096;2023-06-26T04:02:14;12.35;;;8.88;;
24373;SDS011;12498;50.880;12.096;2023-06-26T04:04:40;13.50;;;9.00;;
24373;SDS011;12498;50.880;12.096;2023-06-26T04:07:06;15.25;;;8.95;;
24373;SDS011;12498;50.880;12.096;2023-06-26T04:09:32;11.50;;;8.60;;
24373;SDS011;12498;50.880;12.096;2023-06-26T04:11:58;16.67;;;9.32;;
24373;SDS011;12498;50.880;12.096;2023-06-26T04:14:24;13.95;;;9.10;;
24373;SDS011;12498;50.880;12.096;2023-06-26T04:16:50;14.55;;;9.55;;
24373;SDS011;12498;50.880;12.096;2023-06-26T04:19:16;15.93;;;10.50;;
24373;SDS011;12498;50.880;12.096;2023-06-26T04:21:42;16.10;;;10.55;;
24373;SDS011;12498;50.880;12.096;2023-06-26T04:24:08;14.82;;;9.77;;
24373;SDS011;12498;50.880;12.096;2023-06-26T04:26:34;13.80;;;8.85;;
24373;SDS011;12498;50.880;12.096;2023-06-26T04:29:00;11.68;;;8.63;;
24373;SDS011;12498;50.880;12.096;2023-06-26T04:31:26;13.55;;;9.20;;
24373;SDS011;12498;50.880;12.096;2023-06-26T04:33:52;12.80;;;8.80;;
24373;SDS011;12498;50.880;12.096;2023-06-26T04:36:19;15.32;;;8.93;;
24373;SDS011;12498;50.880;12.096;2023-06-26T04:38:46;14.25;;;9.32;;
24373;SDS011;12498;50.880;12.096;2023-06-26T04:41:15;12.32;;;8.40;;
24373;SDS011;12498;50.880;12.096;2023-06-26T04:43:41;11.50;;;8.55;;
24373;SDS011;12498;50.880;12.096;2023-06-26T04:46:07;14.52;;;8.73;;
24373;SDS011;12498;50.880;12.096;2023-06-26T04:48:33;13.50;;;9.05;;
24373;SDS011;12498;50.880;12.096;2023-06-26T04:50:59;18.63;;;8.60;;
24373;SDS011;12498;50.880;12.096;2023-06-26T04:53:25;17.48;;;11.65;;
24373;SDS011;12498;50.880;12.096;2023-06-26T04:55:52;14.93;;;10.10;;
24373;SDS011;12498;50.880;12.096;2023-06-26T04:58:18;12.77;;;8.82;;
24373;SDS011;12498;50.880;12.096;2023-06-26T05:00:44;14.82;;;9.77;;
24373;SDS011;12498;50.880;12.096;2023-06-26T05:03:13;15.50;;;10.50;;
24373;SDS011;12498;50.880;12.096;2023-06-26T05:05:40;14.98;;;11.23;;
24373;SDS011;12498;50.880;12.096;2023-06-26T05:08:20;20.90;;;14.65;;
24373;SDS011;12498;50.880;12.096;2023-06-26T05:10:46;20.67;;;14.07;;
24373;SDS011;12498;50.880;12.096;2023-06-26T05:13:12;20.20;;;13.75;;
24373;SDS011;12498;50.880;12.096;2023-06-26T05:15:44;20.73;;;12.35;;
24373;SDS011;12498;50.880;12.096;2023-06-26T05:18:10;20.67;;;11.85;;
24373;SDS011;12498;50.880;12.096;2023-06-26T05:20:36;31.25;;;17.00;;
24373;SDS011;12498;50.880;12.096;2023-06-26T05:23:02;24.38;;;14.63;;
24373;SDS011;12498;50.880;12.096;2023-06-26T05:25:29;23.60;;;13.82;;
24373;SDS011;12498;50.880;12.096;2023-06-26T05:27:55;25.10;;;12.90;;
24373;SDS011;12498;50.880;12.096;2023-06-26T05:30:22;14.43;;;10.40;;
24373;SDS011;12498;50.880;12.096;2023-06-26T05:32:50;23.90;;;11.77;;
24373;SDS011;12498;50.880;12.096;2023-06-26T05:35:16;13.77;;;10.52;;
24373;SDS011;12498;50.880;12.096;2023-06-26T05:37:42;15.05;;;10.50;;
24373;SDS011;12498;50.880;12.096;2023-06-26T05:40:09;25.50;;;15.07;;
24373;SDS011;12498;50.880;12.096;2023-06-26T05:42:35;15.32;;;10.02;;
24373;SDS011;12498;50.880;12.096;2023-06-26T05:45:02;11.32;;;8.73;;
24373;SDS011;12498;50.880;12.096;2023-06-26T05:47:28;14.77;;;10.40;;
24373;SDS011;12498;50.880;12.096;2023-06-26T05:49:54;15.30;;;10.00;;
24373;SDS011;12498;50.880;12.096;2023-06-26T05:52:20;18.77;;;11.60;;
24373;SDS011;12498;50.880;12.096;2023-06-26T05:54:46;13.55;;;10.15;;
24373;SDS011;12498;50.880;12.096;2023-06-26T05:57:12;13.38;;;10.55;;
24373;SDS011;12498;50.880;12.096;2023-06-26T05:59:39;16.73;;;10.52;;
24373;SDS011;12498;50.880;12.096;2023-06-26T06:02:06;22.33;;;11.85;;
24373;SDS011;12498;50.880;12.096;2023-06-26T06:04:32;19.60;;;11.65;;
24373;SDS011;12498;50.880;12.096;2023-06-26T06:07:00;18.40;;;11.82;;
24373;SDS011;12498;50.880;12.096;2023-06-26T06:09:26;32.47;;;14.82;;
24373;SDS011;12498;50.880;12.096;2023-06-26T06:11:52;22.45;;;11.20;;
24373;SDS011;12498;50.880;12.096;2023-06-26T06:14:18;25.95;;;12.05;;
24373;SDS011;12498;50.880;12.096;2023-06-26T06:16:44;24.90;;;11.43;;
24373;SDS011;12498;50.880;12.096;2023-06-26T06:19:09;23.70;;;11.40;;
24373;SDS011;12498;50.880;12.096;2023-06-26T06:21:38;26.43;;;11.97;;
24373;SDS011;12498;50.880;12.096;2023-06-26T06:24:04;39.85;;;17.33;;
24373;SDS011;12498;50.880;12.096;2023-06-26T06:26:31;19.13;;;11.63;;
24373;SDS011;12498;50.880;12.096;2023-06-26T06:28:57;44.92;;;19.00;;
24373;SDS011;12498;50.880;12.096;2023-06-26T06:31:23;26.23;;;14.10;;
24373;SDS011;12498;50.880;12.096;2023-06-26T06:33:49;26.73;;;12.95;;
24373;SDS011;12498;50.880;12.096;2023-06-26T06:36:15;20.08;;;10.93;;
24373;SDS011;12498;50.880;12.096;2023-06-26T06:38:44;20.98;;;10.52;;
24373;SDS011;12498;50.880;12.096;2023-06-26T06:41:10;17.35;;;9.65;;
24373;SDS011;12498;50.880;12.096;2023-06-26T06:43:37;32.38;;;12.50;;
24373;SDS011;12498;50.880;12.096;2023-06-26T06:46:04;20.33;;;10.00;;
24373;SDS011;12498;50.880;12.096;2023-06-26T06:48:30;23.48;;;10.32;;
24373;SDS011;12498;50.880;12.096;2023-06-26T06:50:56;37.47;;;13.70;;
24373;SDS011;12498;50.880;12.096;2023-06-26T06:53:22;33.35;;;12.43;;
24373;SDS011;12498;50.880;12.096;2023-06-26T06:55:49;29.80;;;12.38;;
24373;SDS011;12498;50.880;12.096;2023-06-26T06:58:15;16.38;;;9.63;;
24373;SDS011;12498;50.880;12.096;2023-06-26T07:00:44;59.38;;;21.02;;
24373;SDS011;12498;50.880;12.096;2023-06-26T07:03:10;33.05;;;13.88;;
24373;SDS011;12498;50.880;12.096;2023-06-26T07:05:37;26.92;;;11.75;;
24373;SDS011;12498;50.880;12.096;2023-06-26T07:08:03;49.72;;;17.52;;
24373;SDS011;12498;50.880;12.096;2023-06-26T07:10:29;29.65;;;12.27;;
24373;SDS011;12498;50.880;12.096;2023-06-26T07:12:54;25.48;;;11.15;;
24373;SDS011;12498;50.880;12.096;2023-06-26T07:15:20;33.88;;;11.73;;
24373;SDS011;12498;50.880;12.096;2023-06-26T07:17:46;24.88;;;10.70;;
24373;SDS011;12498;50.880;12.096;2023-06-26T07:20:11;30.55;;;10.90;;
24373;SDS011;12498;50.880;12.096;2023-06-26T07:22:40;39.28;;;14.45;;
24373;SDS011;12498;50.880;12.096;2023-06-26T07:25:07;41.55;;;15.52;;
24373;SDS011;12498;50.880;12.096;2023-06-26T07:27:36;20.50;;;10.70;;
24373;SDS011;12498;50.880;12.096;2023-06-26T07:30:03;22.13;;;9.95;;
24373;SDS011;12498;50.880;12.096;2023-06-26T07:32:29;21.23;;;10.50;;
24373;SDS011;12498;50.880;12.096;2023-06-26T07:34:55;19.30;;;9.75;;
24373;SDS011;12498;50.880;12.096;2023-06-26T07:37:20;14.68;;;8.80;;
24373;SDS011;12498;50.880;12.096;2023-06-26T07:39:46;17.98;;;8.85;;
24373;SDS011;12498;50.880;12.096;2023-06-26T07:42:13;12.30;;;7.95;;
24373;SDS011;12498;50.880;12.096;2023-06-26T07:44:38;14.88;;;7.78;;
24373;SDS011;12498;50.880;12.096;2023-06-26T07:47:04;16.17;;;8.50;;
24373;SDS011;12498;50.880;12.096;2023-06-26T07:49:30;16.42;;;7.35;;
24373;SDS011;12498;50.880;12.096;2023-06-26T07:51:55;13.13;;;8.30;;
24373;SDS011;12498;50.880;12.096;2023-06-26T07:54:21;11.88;;;8.13;;
24373;SDS011;12498;50.880;12.096;2023-06-26T07:56:53;19.73;;;8.57;;
24373;SDS011;12498;50.880;12.096;2023-06-26T07:59:19;13.15;;;8.57;;
24373;SDS011;12498;50.880;12.096;2023-06-26T08:01:49;11.00;;;6.72;;
24373;SDS011;12498;50.880;12.096;2023-06-26T08:04:15;23.80;;;9.82;;
24373;SDS011;12498;50.880;12.096;2023-06-26T08:06:41;9.82;;;7.28;;
24373;SDS011;12498;50.880;12.096;2023-06-26T08:09:06;18.52;;;9.80;;
24373;SDS011;12498;50.880;12.096;2023-06-26T08:11:32;16.58;;;8.80;;
24373;SDS011;12498;50.880;12.096;2023-06-26T08:13:58;8.95;;;7.25;;
24373;SDS011;12498;50.880;12.096;2023-06-26T08:16:24;13.00;;;7.20;;
24373;SDS011;12498;50.880;12.096;2023-06-26T08:18:50;11.13;;;7.97;;
24373;SDS011;12498;50.880;12.096;2023-06-26T08:21:16;10.82;;;6.97;;
24373;SDS011;12498;50.880;12.096;2023-06-26T08:23:42;26.58;;;11.15;;
24373;SDS011;12498;50.880;12.096;2023-06-26T08:26:07;12.60;;;7.10;;
24373;SDS011;12498;50.880;12.096;2023-06-26T08:28:33;12.50;;;7.05;;
24373;SDS011;12498;50.880;12.096;2023-06-26T08:30:59;8.43;;;6.57;;
24373;SDS011;12498;50.880;12.096;2023-06-26T08:33:25;8.85;;;6.07;;
24373;SDS011;12498;50.880;12.096;2023-06-26T08:35:50;9.90;;;6.95;;
24373;SDS011;12498;50.880;12.096;2023-06-26T08:38:16;7.57;;;6.45;;
24373;SDS011;12498;50.880;12.096;2023-06-26T08:40:41;8.65;;;6.95;;
24373;SDS011;12498;50.880;12.096;2023-06-26T08:43:07;9.50;;;6.00;;
24373;SDS011;12498;50.880;12.096;2023-06-26T08:45:33;7.88;;;6.50;;
24373;SDS011;12498;50.880;12.096;2023-06-26T08:47:59;7.85;;;6.57;;
24373;SDS011;12498;50.880;12.096;2023-06-26T08:50:28;9.25;;;6.50;;
24373;SDS011;12498;50.880;12.096;2023-06-26T08:55:47;10.05;;;6.95;;
24373;SDS011;12498;50.880;12.096;2023-06-26T09:00:42;9.48;;;7.25;;
24373;SDS011;12498;50.880;12.096;2023-06-26T09:03:08;7.57;;;6.30;;
24373;SDS011;12498;50.880;12.096;2023-06-26T09:05:35;9.10;;;6.20;;
24373;SDS011;12498;50.880;12.096;2023-06-26T09:08:01;7.55;;;6.03;;
24373;SDS011;12498;50.880;12.096;2023-06-26T09:10:27;7.10;;;5.75;;
24373;SDS011;12498;50.880;12.096;2023-06-26T09:12:55;9.07;;;5.82;;
24373;SDS011;12498;50.880;12.096;2023-06-26T09:15:26;7.80;;;5.85;;
24373;SDS011;12498;50.880;12.096;2023-06-26T09:17:55;7.88;;;6.75;;
24373;SDS011;12498;50.880;12.096;2023-06-26T09:22:48;8.43;;;5.93;;
24373;SDS011;12498;50.880;12.096;2023-06-26T09:25:13;7.22;;;6.30;;
24373;SDS011;12498;50.880;12.096;2023-06-26T09:27:40;8.10;;;6.20;;
24373;SDS011;12498;50.880;12.096;2023-06-26T09:30:08;8.32;;;6.53;;
24373;SDS011;12498;50.880;12.096;2023-06-26T09:32:37;8.18;;;6.82;;
24373;SDS011;12498;50.880;12.096;2023-06-26T09:35:03;7.88;;;5.85;;
24373;SDS011;12498;50.880;12.096;2023-06-26T09:37:29;8.32;;;6.03;;
24373;SDS011;12498;50.880;12.096;2023-06-26T09:39:55;7.63;;;6.10;;
24373;SDS011;12498;50.880;12.096;2023-06-26T09:42:21;7.40;;;6.32;;
24373;SDS011;12498;50.880;12.096;2023-06-26T09:44:48;8.98;;;6.28;;
24373;SDS011;12498;50.880;12.096;2023-06-26T09:47:18;7.05;;;5.80;;
24373;SDS011;12498;50.880;12.096;2023-06-26T09:49:44;9.25;;;5.88;;
24373;SDS011;12498;50.880;12.096;2023-06-26T09:52:13;7.95;;;5.68;;
24373;SDS011;12498;50.880;12.096;2023-06-26T09:54:41;8.68;;;5.60;;
24373;SDS011;12498;50.880;12.096;2023-06-26T09:57:10;7.70;;;6.50;;
24373;SDS011;12498;50.880;12.096;2023-06-26T09:59:41;6.25;;;5.63;;
24373;SDS011;12498;50.880;12.096;2023-06-26T10:02:10;7.65;;;6.07;;
24373;SDS011;12498;50.880;12.096;2023-06-26T10:04:36;8.98;;;5.50;;
24373;SDS011;12498;50.880;12.096;2023-06-26T10:07:06;7.10;;;5.30;;
24373;SDS011;12498;50.880;12.096;2023-06-26T10:09:40;9.07;;;5.60;;
24373;SDS011;12498;50.880;12.096;2023-06-26T10:12:11;7.85;;;5.90;;
24373;SDS011;12498;50.880;12.096;2023-06-26T10:14:44;5.88;;;5.00;;
24373;SDS011;12498;50.880;12.096;2023-06-26T10:17:10;6.20;;;4.88;;
24373;SDS011;12498;50.880;12.096;2023-06-26T10:19:39;5.50;;;4.93;;
24373;SDS011;12498;50.880;12.096;2023-06-26T10:22:08;8.55;;;6.05;;
24373;SDS011;12498;50.880;12.096;2023-06-26T10:24:36;6.90;;;5.57;;
24373;SDS011;12498;50.880;12.096;2023-06-26T10:27:21;5.53;;;4.57;;
24373;SDS011;12498;50.880;12.096;2023-06-26T10:29:59;6.32;;;5.35;;
24373;SDS011;12498;50.880;12.096;2023-06-26T10:32:29;5.07;;;4.45;;
24373;SDS011;12498;50.880;12.096;2023-06-26T10:34:55;6.53;;;4.90;;
24373;SDS011;12498;50.880;12.096;2023-06-26T10:37:40;6.35;;;4.65;;
24373;SDS011;12498;50.880;12.096;2023-06-26T10:40:09;5.40;;;4.60;;
24373;SDS011;12498;50.880;12.096;2023-06-26T10:42:39;5.72;;;4.90;;
24373;SDS011;12498;50.880;12.096;2023-06-26T10:45:23;5.88;;;4.88;;
24373;SDS011;12498;50.880;12.096;2023-06-26T10:47:53;6.85;;;4.72;;
24373;SDS011;12498;50.880;12.096;2023-06-26T10:50:29;4.85;;;4.45;;
24373;SDS011;12498;50.880;12.096;2023-06-26T10:53:11;5.65;;;5.05;;
24373;SDS011;12498;50.880;12.096;2023-06-26T10:55:49;8.23;;;5.28;;
24373;SDS011;12498;50.880;12.096;2023-06-26T11:03:55;5.38;;;4.88;;
24373;SDS011;12498;50.880;12.096;2023-06-26T11:06:27;6.63;;;4.85;;
24373;SDS011;12498;50.880;12.096;2023-06-26T11:09:00;6.78;;;4.43;;
24373;SDS011;12498;50.880;12.096;2023-06-26T11:14:17;6.78;;;5.28;;
24373;SDS011;12498;50.880;12.096;2023-06-26T11:16:43;5.50;;;5.00;;
24373;SDS011;12498;50.880;12.096;2023-06-26T11:19:09;5.28;;;4.60;;
24373;SDS011;12498;50.880;12.096;2023-06-26T11:21:39;5.93;;;4.65;;
24373;SDS011;12498;50.880;12.096;2023-06-26T11:24:08;5.13;;;4.50;;
24373;SDS011;12498;50.880;12.096;2023-06-26T11:26:38;6.93;;;5.80;;
24373;SDS011;12498;50.880;12.096;2023-06-26T11:29:05;6.35;;;4.70;;
24373;SDS011;12498;50.880;12.096;2023-06-26T11:31:31;5.38;;;4.90;;
24373;SDS011;12498;50.880;12.096;2023-06-26T11:33:59;9.38;;;5.30;;
24373;SDS011;12498;50.880;12.096;2023-06-26T11:36:27;6.43;;;4.85;;
24373;SDS011;12498;50.880;12.096;2023-06-26T11:38:54;5.32;;;4.82;;
24373;SDS011;12498;50.880;12.096;2023-06-26T11:41:21;5.07;;;4.68;;
24373;SDS011;12498;50.880;12.096;2023-06-26T11:43:47;5.35;;;4.85;;
24373;SDS011;12498;50.880;12.096;2023-06-26T11:46:13;5.53;;;4.82;;
24373;SDS011;12498;50.880;12.096;2023-06-26T11:48:43;5.75;;;5.15;;
24373;SDS011;12498;50.880;12.096;2023-06-26T11:51:08;5.70;;;5.00;;
24373;SDS011;12498;50.880;12.096;2023-06-26T11:53:40;7.70;;;5.20;;
24373;SDS011;12498;50.880;12.096;2023-06-26T11:56:11;6.40;;;5.72;;
24373;SDS011;12498;50.880;12.096;2023-06-26T12:01:24;6.43;;;5.45;;
24373;SDS011;12498;50.880;12.096;2023-06-26T12:03:51;5.80;;;4.80;;
24373;SDS011;12498;50.880;12.096;2023-06-26T12:06:18;7.90;;;5.72;;
24373;SDS011;12498;50.880;12.096;2023-06-26T12:08:44;5.90;;;5.30;;
24373;SDS011;12498;50.880;12.096;2023-06-26T12:11:10;6.20;;;5.60;;
24373;SDS011;12498;50.880;12.096;2023-06-26T12:13:35;7.55;;;5.35;;
24373;SDS011;12498;50.880;12.096;2023-06-26T12:16:01;7.57;;;5.03;;
24373;SDS011;12498;50.880;12.096;2023-06-26T12:18:32;5.38;;;4.88;;
24373;SDS011;12498;50.880;12.096;2023-06-26T12:20:59;5.40;;;4.90;;
24373;SDS011;12498;50.880;12.096;2023-06-26T12:23:31;8.13;;;5.18;;
24373;SDS011;12498;50.880;12.096;2023-06-26T12:25:58;7.28;;;5.10;;
24373;SDS011;12498;50.880;12.096;2023-06-26T12:28:24;6.82;;;5.03;;
24373;SDS011;12498;50.880;12.096;2023-06-26T12:33:38;5.60;;;4.82;;
24373;SDS011;12498;50.880;12.096;2023-06-26T12:36:04;5.57;;;4.50;;
24373;SDS011;12498;50.880;12.096;2023-06-26T12:38:33;5.93;;;4.93;;
24373;SDS011;12498;50.880;12.096;2023-06-26T12:40:58;5.93;;;4.80;;
24373;SDS011;12498;50.880;12.096;2023-06-26T12:43:25;5.32;;;4.80;;
24373;SDS011;12498;50.880;12.096;2023-06-26T12:45:57;7.47;;;4.75;;
24373;SDS011;12498;50.880;12.096;2023-06-26T12:48:38;5.03;;;4.53;;
24373;SDS011;12498;50.880;12.096;2023-06-26T12:51:16;6.03;;;4.90;;
24373;SDS011;12498;50.880;12.096;2023-06-26T12:53:43;7.10;;;4.93;;
24373;SDS011;12498;50.880;12.096;2023-06-26T12:56:09;5.72;;;5.00;;
24373;SDS011;12498;50.880;12.096;2023-06-26T12:58:36;6.97;;;4.78;;
24373;SDS011;12498;50.880;12.096;2023-06-26T13:01:06;5.95;;;4.70;;
24373;SDS011;12498;50.880;12.096;2023-06-26T13:03:40;5.63;;;4.90;;
24373;SDS011;12498;50.880;12.096;2023-06-26T13:06:06;6.60;;;4.47;;
24373;SDS011;12498;50.880;12.096;2023-06-26T13:08:32;5.28;;;4.78;;
24373;SDS011;12498;50.880;12.096;2023-06-26T13:10:59;6.40;;;4.80;;
24373;SDS011;12498;50.880;12.096;2023-06-26T13:13:25;9.68;;;4.82;;
24373;SDS011;12498;50.880;12.096;2023-06-26T13:15:50;5.07;;;4.57;;
24373;SDS011;12498;50.880;12.096;2023-06-26T13:18:16;5.35;;;4.78;;
24373;SDS011;12498;50.880;12.096;2023-06-26T13:20:42;7.15;;;4.90;;
24373;SDS011;12498;50.880;12.096;2023-06-26T13:23:07;5.82;;;4.72;;
24373;SDS011;12498;50.880;12.096;2023-06-26T13:25:33;6.78;;;5.13;;
24373;SDS011;12498;50.880;12.096;2023-06-26T13:27:59;8.55;;;4.93;;
24373;SDS011;12498;50.880;12.096;2023-06-26T13:30:25;6.47;;;5.03;;
24373;SDS011;12498;50.880;12.096;2023-06-26T13:32:50;7.28;;;5.03;;
24373;SDS011;12498;50.880;12.096;2023-06-26T13:35:16;6.90;;;5.10;;
24373;SDS011;12498;50.880;12.096;2023-06-26T13:37:42;7.93;;;5.20;;
24373;SDS011;12498;50.880;12.096;2023-06-26T13:40:07;13.82;;;11.85;;
24373;SDS011;12498;50.880;12.096;2023-06-26T13:42:34;8.60;;;5.22;;
24373;SDS011;12498;50.880;12.096;2023-06-26T13:45:01;6.55;;;5.82;;
24373;SDS011;12498;50.880;12.096;2023-06-26T13:47:28;5.35;;;4.85;;
24373;SDS011;12498;50.880;12.096;2023-06-26T13:49:53;6.47;;;5.40;;
24373;SDS011;12498;50.880;12.096;2023-06-26T13:52:19;6.90;;;5.40;;
24373;SDS011;12498;50.880;12.096;2023-06-26T13:54:44;9.20;;;5.30;;
24373;SDS011;12498;50.880;12.096;2023-06-26T13:57:10;5.95;;;5.35;;
24373;SDS011;12498;50.880;12.096;2023-06-26T13:59:36;7.97;;;5.30;;
24373;SDS011;12498;50.880;12.096;2023-06-26T14:02:04;8.45;;;5.80;;
24373;SDS011;12498;50.880;12.096;2023-06-26T14:04:31;7.22;;;5.53;;
24373;SDS011;12498;50.880;12.096;2023-06-26T14:06:57;6.32;;;5.70;;
24373;SDS011;12498;50.880;12.096;2023-06-26T14:09:23;6.78;;;5.47;;
24373;SDS011;12498;50.880;12.096;2023-06-26T14:11:49;7.93;;;5.57;;
24373;SDS011;12498;50.880;12.096;2023-06-26T14:14:14;9.25;;;5.65;;
24373;SDS011;12498;50.880;12.096;2023-06-26T14:16:40;8.07;;;5.80;;
24373;SDS011;12498;50.880;12.096;2023-06-26T14:19:05;23.10;;;6.93;;
24373;SDS011;12498;50.880;12.096;2023-06-26T14:21:31;21.52;;;7.00;;
24373;SDS011;12498;50.880;12.096;2023-06-26T14:23:58;14.93;;;7.18;;
24373;SDS011;12498;50.880;12.096;2023-06-26T14:26:24;18.83;;;7.45;;
24373;SDS011;12498;50.880;12.096;2023-06-26T14:28:50;19.98;;;8.60;;
24373;SDS011;12498;50.880;12.096;2023-06-26T14:31:16;17.00;;;8.40;;
24373;SDS011;12498;50.880;12.096;2023-06-26T14:33:42;20.83;;;8.38;;
24373;SDS011;12498;50.880;12.096;2023-06-26T14:36:08;18.75;;;8.80;;
24373;SDS011;12498;50.880;12.096;2023-06-26T14:38:34;24.42;;;9.38;;
24373;SDS011;12498;50.880;12.096;2023-06-26T14:41:00;24.08;;;8.88;;
24373;SDS011;12498;50.880;12.096;2023-06-26T14:43:26;21.00;;;10.55;;
24373;SDS011;12498;50.880;12.096;2023-06-26T14:45:52;18.92;;;10.20;;
24373;SDS011;12498;50.880;12.096;2023-06-26T14:48:18;13.25;;;8.95;;
24373;SDS011;12498;50.880;12.096;2023-06-26T14:50:44;15.70;;;8.60;;